Accueil
METAR-TAF:

METAR-TAF

Aéroports :

Aéroport d'Annecy Haute-Savoie Mont-Blanc

Annecy, France

latitude: 45-55-45N, longitude: 006-05-56E, altitude: 463 m

Observation

Le bulletin a été fait il y a 11 minutes, à 20:00 UTC
Vent 1 kt de direction variable
Température 22°C
Humidité 73%
Pression 1016 hPa
Visibilité 10 km ou plus
Quelques nuages à une hauteur de 5200 ft

METAR: LFLP 142000Z AUTO VRB01KT 9999 FEW052 22/17 Q1016

Heure: 22:11 (20:11 UTC)

Prévision

Le bulletin a été fait il y a 6 heures et 11 minutes, à 14:00 UTC
Prévision valable du 14 à 15 UTC au 15 à 15 UTC
Vent 6 kt de sud-ouest
Visibilité 10 km ou plus
Nuages épars à une hauteur de 5000 ft
Evoluant progressivement
du 14 à 18 UTC au 14 à 20 UTC
Vent 3 kt de direction variable
Visibilité 10 km ou plus
pas de nuages en-dessous de 1500 mètres et pas de cumulonimbus.

TAF: LFLP 141400Z 1415/1515 22006KT 9999 SCT050 BECMG 1418/1420 VRB03KT CAVOK

Observations et prévisions météorologiques de plus de 4000 aéroports (messages METAR et TAF).

Les stations disponibles sont représentées par des disques jaunes et rouges sur la carte.

Passer la souris dessus pour voir le nom de la station.

Cliquer dessus pour voir les observations et prévisions météorologiques.

Pour changer de carte: cliquez sur les boutons verts avec une croix noire pour zoomer, sur le bouton vert avec un tiret pour effectuer un zoom arrière, ou sur les flèches vertes pour les cartes adjacentes.


METAR-TAF: